Meath Environmental Platform

Observations for Trim Patrick St

Time AQI Temp °C Hum % Pres Pa CO μg/m³ H₂S μg/m³ NO μg/m³ NO₂ μg/m³ O₃ μg/m³ SO₂ μg/m³ PM1 μg/m³ PM2.5 μg/m³ PM10 μg/m³
Wednesday 5 August 2026
16:09 2 20.3 67 37,117 0 25.08 1.18 48.72 66.59 4.97 2 6.09 6.7
16:08 2 20.2 66 36,669 0 26.4 1.19 59.35 59.78 4.16 2 6.13 6.74
16:07 2 20.2 66 36,072 0 19.32 1.18 48.1 61.16 3.41 2 6.13 6.74
16:06 2 20.1 68 35,276 0 24.24 1.13 26.45 75.76 5.63 2 5.28 5.81
16:05 2 20.1 68 34,214 0 33.79 1.15 58.52 63.43 5.93 2 6.03 6.63
16:04 2 20 66 32,797 0 31.5 1.21 68.24 59.41 4.84 2 5.39 5.92
16:03 2 19.9 68 30,910 0 27.89 1.19 51.48 67.83 4.49 2 5.3 5.83
16:02 2 19.9 66 28,393 0 28.34 1.22 41.37 72.48 4.94 2 5.39 5.93
16:01 2 20 66 25,037 0 29.45 1.22 56.54 66.93 5.16 2 5.42 5.97
16:00 2 20 64 20,562 0 24.89 1.25 42.29 65.86 4.52 2 5.56 6.11
15:59 2 20.1 65 14,594 0 24.48 1.24 34.46 74.76 4.75 2 5.49 6.03
15:58 2 20.2 64 6,633 0 24.5 1.27 36.38 72.37 5.27 2 5.56 6.12
15:57 2 20.4 63 109,841 0 24.16 1.24 42.08 70.23 5.07 2 6.34 6.98
15:56 2 20.5 62 97,534 0 22.85 1.24 24.34 74.05 5.76 2 5.67 6.24
15:55 2 20.7 61 88,645 0 23.38 1.22 22.07 84.36 5.83 2 6.44 7.08
15:54 2 20.9 60 81,461 0 22.9 1.23 23.08 77.5 6.4 2 6.49 7.14
15:53 2 21.1 60 78,031 0 22.67 1.22 18.87 86.47 6.19 2 5.75 6.33
15:52 2 21.3 59 76,409 0 19.76 1.22 18.18 85.3 6.31 2 6.6 7.26
15:51 2 21.6 58 75,564 0 16.94 1.35 13.33 87.02 7.37 2 5.9 6.49
15:50 2 21.9 57 74,943 0 13.34 1.58 12.92 87.61 6.84 2 5.98 6.58